createdAt,value
2022-11-23T00:00:37.676Z,91960.87
2022-11-23T00:05:44.846Z,91967.44
2022-11-23T00:10:51.646Z,91953.78
2022-11-23T00:15:58.824Z,91955.35
2022-11-23T00:21:14.570Z,91956.11
2022-11-23T00:26:22.420Z,91951.72
2022-11-23T00:31:29.255Z,91958.27
2022-11-23T00:36:36.163Z,91954.05
2022-11-23T00:41:43.332Z,91946.48
2022-11-23T00:46:50.111Z,91955.34
2022-11-23T00:51:57.088Z,91949.86
2022-11-23T00:57:04.211Z,91952.77
2022-11-23T01:02:11.396Z,91946.73
2022-11-23T01:07:20.036Z,91950.41
2022-11-23T01:12:27.182Z,91953.28
2022-11-23T01:17:34.025Z,91945.98
2022-11-23T01:22:41.142Z,91948.08
2022-11-23T01:27:47.927Z,91944.93
2022-11-23T01:32:55.003Z,91942.03
2022-11-23T01:38:02.093Z,91942.05
2022-11-23T01:43:13.430Z,91951.18
2022-11-23T01:48:27.582Z,91951.70
2022-11-23T01:53:35.471Z,91950.88
2022-11-23T01:58:46.036Z,91960.07
2022-11-23T02:03:56.092Z,91966.66
2022-11-23T02:09:03.731Z,91965.05
2022-11-23T02:14:12.990Z,91967.69
2022-11-23T02:19:26.932Z,91965.08
2022-11-23T02:24:41.121Z,91966.39
2022-11-23T02:29:49.847Z,91962.21
2022-11-23T02:34:56.498Z,91970.57
2022-11-23T02:40:07.016Z,91972.14
2022-11-23T02:45:59.645Z,91975.03
2022-11-23T02:51:06.423Z,91976.33
2022-11-23T02:56:13.099Z,91984.98
2022-11-23T03:01:19.917Z,91984.98
2022-11-23T03:06:26.904Z,91989.69
2022-11-23T03:11:34.159Z,91993.62
2022-11-23T03:16:41.858Z,91995.45
2022-11-23T03:21:48.586Z,91996.77
2022-11-23T03:26:55.349Z,91994.93
2022-11-23T03:32:02.137Z,91996.23
2022-11-23T03:37:08.938Z,91999.13
2022-11-23T03:42:15.767Z,91989.41
2022-11-23T03:47:22.523Z,92002.28
2022-11-23T03:52:29.222Z,91993.90
2022-11-23T03:57:36.058Z,91990.22
2022-11-23T04:02:44.124Z,92000.69
2022-11-23T04:07:51.839Z,91995.20
2022-11-23T04:12:59.247Z,91993.36
2022-11-23T04:18:06.668Z,91994.39
2022-11-23T04:23:13.879Z,91993.34
2022-11-23T04:28:20.992Z,91995.18
2022-11-23T04:33:28.308Z,91990.23
2022-11-23T04:38:35.799Z,91997.82
2022-11-23T04:43:43.204Z,92004.37
2022-11-23T04:48:50.900Z,92011.45
2022-11-23T04:53:58.096Z,92016.17
2022-11-23T04:59:05.093Z,92016.95
2022-11-23T05:04:17.594Z,92025.06
2022-11-23T05:09:21.940Z,92031.61
2022-11-23T05:14:29.002Z,92036.29
2022-11-23T05:19:36.088Z,92033.17
2022-11-23T05:24:43.220Z,92043.66
2022-11-23T05:29:50.139Z,92048.64
2022-11-23T05:34:57.098Z,92045.50
2022-11-23T05:40:05.529Z,92057.54
2022-11-23T05:45:13.001Z,92047.31
2022-11-23T05:50:20.333Z,92053.04
2022-11-23T05:55:28.166Z,92051.80
2022-11-23T06:00:35.051Z,92065.34
2022-11-23T06:05:42.370Z,92063.55
2022-11-23T06:10:49.247Z,92071.18
2022-11-23T06:15:56.163Z,92079.52
2022-11-23T06:21:03.984Z,92074.84
2022-11-23T06:26:10.888Z,92068.78
2022-11-23T06:31:17.928Z,92079.75
2022-11-23T06:36:24.723Z,92085.84
2022-11-23T06:41:32.675Z,92087.42
2022-11-23T06:46:40.327Z,92095.80
2022-11-23T06:51:48.492Z,92097.90
2022-11-23T06:56:55.291Z,92107.80
2022-11-23T07:02:03.876Z,92106.25
2022-11-23T07:07:11.387Z,92119.80
2022-11-23T07:12:18.530Z,92109.95
2022-11-23T07:17:25.832Z,92124.33
2022-11-23T07:22:32.747Z,92122.52
2022-11-23T07:27:39.523Z,92126.73
2022-11-23T07:32:46.627Z,92130.14
2022-11-23T07:37:53.492Z,92137.20
2022-11-23T07:43:05.348Z,92139.57
2022-11-23T07:48:13.208Z,92135.91
2022-11-23T07:53:20.185Z,92134.59
2022-11-23T07:58:27.407Z,92128.83
2022-11-23T08:03:35.001Z,92134.59
2022-11-23T08:08:42.771Z,92139.58
2022-11-23T08:13:49.502Z,92143.25
2022-11-23T08:18:56.719Z,92150.59
2022-11-23T08:24:03.784Z,92155.03
2022-11-23T08:29:10.817Z,92155.55
2022-11-23T08:34:19.233Z,92161.52
2022-11-23T08:39:27.043Z,92158.94
2022-11-23T08:44:34.891Z,92163.13
2022-11-23T08:49:42.108Z,92163.44
2022-11-23T08:54:48.963Z,92163.98
2022-11-23T08:59:55.889Z,92159.98
2022-11-23T09:05:04.129Z,92171.54
2022-11-23T09:10:16.559Z,92175.92
2022-11-23T09:15:26.309Z,92173.08
2022-11-23T09:20:33.230Z,92174.95
2022-11-23T09:25:40.236Z,92185.99
2022-11-23T09:30:48.371Z,92187.56
2022-11-23T09:36:07.072Z,92180.24
2022-11-23T09:41:38.750Z,92184.93
2022-11-23T09:47:34.791Z,92180.45
2022-11-23T09:52:44.337Z,92178.90
2022-11-23T09:57:54.879Z,92171.59
2022-11-23T10:03:01.724Z,92174.73
2022-11-23T10:08:25.616Z,92179.70
2022-11-23T10:13:42.215Z,92180.50
2022-11-23T10:18:57.623Z,92179.70
2022-11-23T10:24:20.394Z,92178.12
2022-11-23T10:29:39.244Z,92179.16
2022-11-23T10:35:06.009Z,92172.56
2022-11-23T10:40:23.463Z,92175.77
2022-11-23T10:45:32.068Z,92180.22
2022-11-23T10:50:45.210Z,92178.65
2022-11-23T10:55:55.858Z,92181.26
2022-11-23T11:01:09.586Z,92182.04
2022-11-23T11:06:20.906Z,92175.22
2022-11-23T11:11:34.966Z,92180.22
2022-11-23T11:16:51.212Z,92171.52
2022-11-23T11:22:00.412Z,92166.27
2022-11-23T11:27:20.332Z,92167.61
2022-11-23T11:32:49.765Z,92171.49
2022-11-23T11:38:03.451Z,92180.20
2022-11-23T11:43:40.018Z,92179.66
2022-11-23T11:48:56.548Z,92165.17
2022-11-23T11:54:43.529Z,92171.75
2022-11-23T11:59:59.275Z,92166.47
2022-11-23T12:05:28.912Z,92158.66
2022-11-23T12:10:52.141Z,92156.97
2022-11-23T12:16:32.654Z,92148.31
2022-11-23T12:22:15.216Z,92144.97
2022-11-23T12:27:48.464Z,92150.20
2022-11-23T12:33:16.344Z,92155.66
2022-11-23T12:39:05.780Z,92162.48
2022-11-23T12:44:36.283Z,92154.10
2022-11-23T12:50:08.060Z,92157.30
2022-11-23T12:55:35.126Z,92152.26
2022-11-23T13:00:49.766Z,92153.83
2022-11-23T13:06:37.237Z,92156.20
2022-11-23T13:12:08.521Z,92167.98
2022-11-23T13:17:29.051Z,92165.84
2022-11-23T13:22:37.334Z,92166.55
2022-11-23T13:27:54.951Z,92167.11
2022-11-23T13:33:27.639Z,92160.61
2022-11-23T13:38:34.962Z,92159.02
2022-11-23T13:43:42.085Z,92170.39
2022-11-23T13:48:57.150Z,92167.92
2022-11-23T13:54:07.395Z,92174.63
2022-11-23T13:59:35.174Z,92181.63
2022-11-23T14:04:45.510Z,92178.58
2022-11-23T14:10:01.151Z,92183.91
2022-11-23T14:15:29.776Z,92179.34
2022-11-23T14:21:11.010Z,92024.34
2022-11-23T14:26:46.076Z,92190.16
2022-11-23T14:32:34.593Z,92195.45
2022-11-23T14:37:51.731Z,92200.22
2022-11-23T14:42:59.906Z,92209.50
2022-11-23T14:48:31.816Z,92215.30
2022-11-23T14:53:49.581Z,92214.22
2022-11-23T14:59:00.825Z,92211.39
2022-11-23T15:04:15.456Z,92217.95
2022-11-23T15:09:58.043Z,92227.44
2022-11-23T15:15:06.606Z,92226.09
2022-11-23T15:20:14.443Z,92224.02
2022-11-23T15:25:22.053Z,92219.30
2022-11-23T15:30:32.376Z,92221.42
2022-11-23T15:35:40.922Z,92218.25
2022-11-23T15:40:50.560Z,92226.13
2022-11-23T15:46:04.818Z,92216.91
2022-11-23T15:51:14.588Z,92228.47
2022-11-23T15:56:28.912Z,92227.69
2022-11-23T16:01:36.202Z,92231.34
2022-11-23T16:06:46.331Z,92233.16
2022-11-23T16:11:53.677Z,92233.42
2022-11-23T16:17:22.866Z,92240.00
2022-11-23T16:22:37.478Z,92252.59
2022-11-23T16:27:45.282Z,92239.73
2022-11-23T16:32:52.574Z,92241.85
2022-11-23T16:37:59.792Z,92239.50
2022-11-23T16:43:08.725Z,92251.02
2022-11-23T16:48:33.153Z,92256.75
2022-11-23T16:54:08.190Z,92261.20
2022-11-23T16:58:49.314Z,92257.30
2022-11-23T17:03:56.605Z,92261.23
2022-11-23T17:09:08.196Z,92273.03
2022-11-23T17:14:19.209Z,92280.12
2022-11-23T17:19:25.944Z,92281.17
2022-11-23T17:24:33.302Z,92294.77
2022-11-23T17:29:42.141Z,92296.73
2022-11-23T17:34:49.051Z,92298.94
2022-11-23T17:39:56.086Z,92306.23
2022-11-23T17:45:04.038Z,92313.84
2022-11-23T17:50:14.579Z,92308.13
2022-11-23T17:55:23.008Z,92320.66
2022-11-23T18:00:31.478Z,92324.56
2022-11-23T18:05:38.370Z,92332.20
2022-11-23T18:10:45.999Z,92331.38
2022-11-23T18:15:53.266Z,92332.16
2022-11-23T18:21:01.061Z,92338.73
2022-11-23T18:26:23.242Z,92334.61
2022-11-23T18:31:30.537Z,92338.80
2022-11-23T18:36:37.650Z,92341.61
2022-11-23T18:41:45.035Z,92344.41
2022-11-23T18:46:53.785Z,92343.13
2022-11-23T18:52:00.820Z,92352.30
2022-11-23T18:57:08.575Z,92349.16
2022-11-23T19:02:15.810Z,92343.84
2022-11-23T19:07:26.815Z,92354.88
2022-11-23T19:12:31.675Z,92357.25
2022-11-23T19:17:39.227Z,92359.61
2022-11-23T19:22:46.143Z,92357.20
2022-11-23T19:27:54.037Z,92354.39
2022-11-23T19:33:01.371Z,92346.19
2022-11-23T19:38:10.563Z,92342.13
2022-11-23T19:43:17.948Z,92349.73
2022-11-23T19:48:26.200Z,92347.63
2022-11-23T19:53:37.574Z,92347.44
2022-11-23T19:58:45.526Z,92356.68
2022-11-23T20:03:55.294Z,92350.77
2022-11-23T20:09:05.551Z,92355.86
2022-11-23T20:14:16.973Z,92360.16
2022-11-23T20:19:24.173Z,92361.78
2022-11-23T20:24:31.640Z,92363.55
2022-11-23T20:29:38.447Z,92370.44
2022-11-23T20:34:45.599Z,92375.78
2022-11-23T20:39:53.954Z,92389.13
2022-11-23T20:45:01.005Z,92382.48
2022-11-23T20:50:10.285Z,92391.05
2022-11-23T20:55:18.690Z,92237.66
2022-11-23T21:00:27.216Z,92396.81
2022-11-23T21:05:34.196Z,92402.07
2022-11-23T21:10:59.216Z,92402.67
2022-11-23T21:16:07.993Z,92405.11
2022-11-23T21:21:14.984Z,92412.25
2022-11-23T21:26:21.947Z,92424.56
2022-11-23T21:31:30.417Z,92430.79
2022-11-23T21:36:42.924Z,92435.25
2022-11-23T21:41:51.664Z,92443.27
2022-11-23T21:46:59.011Z,92451.23
2022-11-23T21:52:06.797Z,92453.80
2022-11-23T21:57:13.862Z,92457.59
2022-11-23T22:02:20.536Z,92453.14
2022-11-23T22:07:27.740Z,92445.20
2022-11-23T22:12:34.573Z,92456.11
2022-11-23T22:17:41.439Z,92465.81
2022-11-23T22:22:48.513Z,92462.03
2022-11-23T22:27:55.594Z,92466.02
2022-11-23T22:33:02.467Z,92471.48
2022-11-23T22:38:09.448Z,92473.08
2022-11-23T22:43:16.692Z,92482.86
2022-11-23T22:48:24.283Z,92488.94
2022-11-23T22:53:32.498Z,92495.89
2022-11-23T22:58:40.041Z,92483.25
2022-11-23T23:03:47.946Z,92489.20
2022-11-23T23:08:58.251Z,92498.58
2022-11-23T23:14:05.282Z,92494.84
2022-11-23T23:19:12.333Z,92488.16
2022-11-23T23:24:19.217Z,92499.67
2022-11-23T23:29:26.088Z,92511.66
2022-11-23T23:34:33.370Z,92513.34
2022-11-23T23:39:40.885Z,92519.08
2022-11-23T23:44:48.043Z,92525.95
2022-11-23T23:49:55.268Z,92537.38
2022-11-23T23:55:02.490Z,92533.60
